KGRR/GRR METAR and TAF weather

Enter ICAO airport designator
Station Type Date Time Source
KGRR METAR 2020/06/05 09:53 UTC NOAA

KGRR 050953Z 00000KT 8SM MIFG FEW060 BKN250 14/13 A2982 RMK AO2 SLP094 T01440133


Station Type Date Time Source
KGRR Decoded METAR 2020/06/05 09:53 UTC NOAA

GERALD R. FORD INTERNATIONAL, MI, United States (KGRR) 42-53N 085-31W 239M
Jun 05, 2020 - 05:53 AM EDT / 2020.06.05 0953 UTC
Wind: Calm:0
Visibility: 8 mile(s):0
Sky conditions: mostly cloudy
Weather: shallow fog
Temperature: 57.9 F (14.4 C)
Dew Point: 55.9 F (13.3 C)
Relative Humidity: 93%
Pressure (altimeter): 29.82 in. Hg (1009 hPa)
ob: KGRR 050953Z 00000KT 8SM MIFG FEW060 BKN250 14/13 A2982 RMK AO2 SLP094 T01440133
cycle: 10

Station Type Date Time Source
KGRR TAF 2020/06/05 06:54 UTC NOAA

TAF KGRR 050551Z 0506/0606 00000KT P6SM SKC
FM051000 15002KT 4SM BR BKN250
FM051200 20004KT P6SM BKN160 BKN250
FM051630 25009KT P6SM VCTS SCT070CB BKN120 BKN250
FM051800 26008KT P6SM VCSH SCT060 BKN250
FM060000 29004KT P6SM BKN250

Example: see airport list